sensor_id;sensor_type;location;lat;lon;timestamp;temperature;humidity
5346;DHT22;2695;49.444;11.054;2023-03-08T00:01:56;5.70;94.90
5346;DHT22;2695;49.444;11.054;2023-03-08T00:04:24;5.70;95.20
5346;DHT22;2695;49.444;11.054;2023-03-08T00:06:54;5.70;95.10
5346;DHT22;2695;49.444;11.054;2023-03-08T00:09:22;5.70;95.20
5346;DHT22;2695;49.444;11.054;2023-03-08T00:11:50;5.70;95.10
5346;DHT22;2695;49.444;11.054;2023-03-08T00:14:18;5.70;95.00
5346;DHT22;2695;49.444;11.054;2023-03-08T00:16:46;5.70;94.90
5346;DHT22;2695;49.444;11.054;2023-03-08T00:19:14;5.80;95.10
5346;DHT22;2695;49.444;11.054;2023-03-08T00:21:42;5.70;95.60
5346;DHT22;2695;49.444;11.054;2023-03-08T00:24:11;5.70;95.10
5346;DHT22;2695;49.444;11.054;2023-03-08T00:26:42;5.70;95.20
5346;DHT22;2695;49.444;11.054;2023-03-08T00:29:10;5.70;95.00
5346;DHT22;2695;49.444;11.054;2023-03-08T00:31:38;5.70;95.10
5346;DHT22;2695;49.444;11.054;2023-03-08T00:34:06;5.70;95.10
5346;DHT22;2695;49.444;11.054;2023-03-08T00:36:34;5.80;95.20
5346;DHT22;2695;49.444;11.054;2023-03-08T00:39:02;5.70;95.20
5346;DHT22;2695;49.444;11.054;2023-03-08T00:41:31;5.70;95.10
5346;DHT22;2695;49.444;11.054;2023-03-08T00:44:00;5.80;95.20
5346;DHT22;2695;49.444;11.054;2023-03-08T00:46:28;5.80;95.00
5346;DHT22;2695;49.444;11.054;2023-03-08T00:48:56;5.80;95.20
5346;DHT22;2695;49.444;11.054;2023-03-08T00:51:24;5.80;95.20
5346;DHT22;2695;49.444;11.054;2023-03-08T00:53:52;5.80;95.10
5346;DHT22;2695;49.444;11.054;2023-03-08T00:56:20;5.80;95.00
5346;DHT22;2695;49.444;11.054;2023-03-08T00:58:50;5.80;95.00
5346;DHT22;2695;49.444;11.054;2023-03-08T01:01:18;5.80;95.20
5346;DHT22;2695;49.444;11.054;2023-03-08T01:03:46;5.80;95.10
5346;DHT22;2695;49.444;11.054;2023-03-08T01:06:14;5.90;95.20
5346;DHT22;2695;49.444;11.054;2023-03-08T01:08:43;5.90;95.30
5346;DHT22;2695;49.444;11.054;2023-03-08T01:11:18;5.80;94.90
5346;DHT22;2695;49.444;11.054;2023-03-08T01:13:47;5.90;95.00
5346;DHT22;2695;49.444;11.054;2023-03-08T01:16:19;5.90;94.90
5346;DHT22;2695;49.444;11.054;2023-03-08T01:18:48;5.90;94.90
5346;DHT22;2695;49.444;11.054;2023-03-08T01:21:16;6.00;95.00
5346;DHT22;2695;49.444;11.054;2023-03-08T01:23:44;5.90;95.10
5346;DHT22;2695;49.444;11.054;2023-03-08T01:26:14;5.90;95.00
5346;DHT22;2695;49.444;11.054;2023-03-08T01:28:43;5.80;95.00
5346;DHT22;2695;49.444;11.054;2023-03-08T01:31:13;5.80;95.10
5346;DHT22;2695;49.444;11.054;2023-03-08T01:33:43;5.90;95.00
5346;DHT22;2695;49.444;11.054;2023-03-08T01:36:13;5.90;95.10
5346;DHT22;2695;49.444;11.054;2023-03-08T01:38:41;5.90;95.00
5346;DHT22;2695;49.444;11.054;2023-03-08T01:41:15;5.90;94.90
5346;DHT22;2695;49.444;11.054;2023-03-08T01:43:44;5.90;94.80
5346;DHT22;2695;49.444;11.054;2023-03-08T01:46:27;6.00;94.60
5346;DHT22;2695;49.444;11.054;2023-03-08T01:49:00;6.00;94.90
5346;DHT22;2695;49.444;11.054;2023-03-08T01:51:35;6.00;94.60
5346;DHT22;2695;49.444;11.054;2023-03-08T01:54:07;5.90;94.60
5346;DHT22;2695;49.444;11.054;2023-03-08T01:56:36;6.00;94.50
5346;DHT22;2695;49.444;11.054;2023-03-08T01:59:06;5.90;94.70
5346;DHT22;2695;49.444;11.054;2023-03-08T02:01:34;5.90;94.50
5346;DHT22;2695;49.444;11.054;2023-03-08T02:04:04;5.90;94.60
5346;DHT22;2695;49.444;11.054;2023-03-08T02:06:32;5.90;94.30
5346;DHT22;2695;49.444;11.054;2023-03-08T02:09:02;5.90;94.40
5346;DHT22;2695;49.444;11.054;2023-03-08T02:11:32;5.90;94.30
5346;DHT22;2695;49.444;11.054;2023-03-08T02:14:00;5.90;94.30
5346;DHT22;2695;49.444;11.054;2023-03-08T02:16:28;5.80;94.30
5346;DHT22;2695;49.444;11.054;2023-03-08T02:18:58;5.80;94.20
5346;DHT22;2695;49.444;11.054;2023-03-08T02:21:29;5.80;94.30
5346;DHT22;2695;49.444;11.054;2023-03-08T02:24:04;5.80;94.40
5346;DHT22;2695;49.444;11.054;2023-03-08T02:26:35;5.80;94.10
5346;DHT22;2695;49.444;11.054;2023-03-08T02:29:03;5.80;94.20
5346;DHT22;2695;49.444;11.054;2023-03-08T02:31:31;5.80;94.20
5346;DHT22;2695;49.444;11.054;2023-03-08T02:33:59;5.70;94.40
5346;DHT22;2695;49.444;11.054;2023-03-08T02:36:27;5.70;94.30
5346;DHT22;2695;49.444;11.054;2023-03-08T02:38:55;5.70;94.30
5346;DHT22;2695;49.444;11.054;2023-03-08T02:41:24;5.70;94.20
5346;DHT22;2695;49.444;11.054;2023-03-08T02:43:52;5.70;94.20
5346;DHT22;2695;49.444;11.054;2023-03-08T02:46:20;5.70;94.10
5346;DHT22;2695;49.444;11.054;2023-03-08T02:48:48;5.60;94.20
5346;DHT22;2695;49.444;11.054;2023-03-08T02:51:18;5.60;94.10
5346;DHT22;2695;49.444;11.054;2023-03-08T02:53:46;5.60;94.20
5346;DHT22;2695;49.444;11.054;2023-03-08T02:56:14;5.50;94.00
5346;DHT22;2695;49.444;11.054;2023-03-08T02:58:44;5.50;94.10
5346;DHT22;2695;49.444;11.054;2023-03-08T03:01:12;5.40;94.10
5346;DHT22;2695;49.444;11.054;2023-03-08T03:03:41;5.30;94.20
5346;DHT22;2695;49.444;11.054;2023-03-08T03:06:13;5.30;94.40
5346;DHT22;2695;49.444;11.054;2023-03-08T03:08:41;5.30;94.40
5346;DHT22;2695;49.444;11.054;2023-03-08T03:11:11;5.30;94.40
5346;DHT22;2695;49.444;11.054;2023-03-08T03:13:39;5.30;94.30
5346;DHT22;2695;49.444;11.054;2023-03-08T03:16:10;5.40;94.40
5346;DHT22;2695;49.444;11.054;2023-03-08T03:18:39;5.30;94.30
5346;DHT22;2695;49.444;11.054;2023-03-08T03:21:09;5.20;94.20
5346;DHT22;2695;49.444;11.054;2023-03-08T03:23:38;5.20;94.40
5346;DHT22;2695;49.444;11.054;2023-03-08T03:26:08;5.20;94.40
5346;DHT22;2695;49.444;11.054;2023-03-08T03:28:36;5.10;94.30
5346;DHT22;2695;49.444;11.054;2023-03-08T03:31:08;5.10;94.30
5346;DHT22;2695;49.444;11.054;2023-03-08T03:33:36;5.00;94.50
5346;DHT22;2695;49.444;11.054;2023-03-08T03:36:06;4.90;94.50
5346;DHT22;2695;49.444;11.054;2023-03-08T03:38:35;4.90;94.70
5346;DHT22;2695;49.444;11.054;2023-03-08T03:41:05;4.80;94.80
5346;DHT22;2695;49.444;11.054;2023-03-08T03:43:33;4.70;94.90
5346;DHT22;2695;49.444;11.054;2023-03-08T03:46:02;4.60;95.10
5346;DHT22;2695;49.444;11.054;2023-03-08T03:48:32;4.50;95.30
5346;DHT22;2695;49.444;11.054;2023-03-08T03:51:02;4.40;95.50
5346;DHT22;2695;49.444;11.054;2023-03-08T03:53:32;4.30;95.80
5346;DHT22;2695;49.444;11.054;2023-03-08T03:56:02;4.20;95.80
5346;DHT22;2695;49.444;11.054;2023-03-08T03:58:31;4.10;96.00
5346;DHT22;2695;49.444;11.054;2023-03-08T04:00:59;4.10;96.10
5346;DHT22;2695;49.444;11.054;2023-03-08T04:03:27;4.00;96.20
5346;DHT22;2695;49.444;11.054;2023-03-08T04:06:06;4.00;96.30
5346;DHT22;2695;49.444;11.054;2023-03-08T04:08:34;3.90;96.40
5346;DHT22;2695;49.444;11.054;2023-03-08T04:11:07;3.90;96.60
5346;DHT22;2695;49.444;11.054;2023-03-08T04:13:36;3.90;96.70
5346;DHT22;2695;49.444;11.054;2023-03-08T04:16:08;3.90;96.70
5346;DHT22;2695;49.444;11.054;2023-03-08T04:18:37;4.00;96.80
5346;DHT22;2695;49.444;11.054;2023-03-08T04:21:07;4.00;96.60
5346;DHT22;2695;49.444;11.054;2023-03-08T04:23:36;4.00;96.50
5346;DHT22;2695;49.444;11.054;2023-03-08T04:26:04;4.00;96.70
5346;DHT22;2695;49.444;11.054;2023-03-08T04:28:33;4.00;96.60
5346;DHT22;2695;49.444;11.054;2023-03-08T04:31:10;4.10;96.60
5346;DHT22;2695;49.444;11.054;2023-03-08T04:33:39;4.10;96.50
5346;DHT22;2695;49.444;11.054;2023-03-08T04:36:08;4.10;96.60
5346;DHT22;2695;49.444;11.054;2023-03-08T04:38:37;4.20;96.50
5346;DHT22;2695;49.444;11.054;2023-03-08T04:41:05;4.20;96.60
5346;DHT22;2695;49.444;11.054;2023-03-08T04:43:38;4.20;96.70
5346;DHT22;2695;49.444;11.054;2023-03-08T04:46:07;4.20;96.60
5346;DHT22;2695;49.444;11.054;2023-03-08T04:48:35;4.20;96.40
5346;DHT22;2695;49.444;11.054;2023-03-08T04:51:05;4.20;96.50
5346;DHT22;2695;49.444;11.054;2023-03-08T04:53:35;4.20;96.70
5346;DHT22;2695;49.444;11.054;2023-03-08T04:56:05;4.20;96.70
5346;DHT22;2695;49.444;11.054;2023-03-08T04:58:35;4.10;96.70
5346;DHT22;2695;49.444;11.054;2023-03-08T05:01:08;4.10;96.80
5346;DHT22;2695;49.444;11.054;2023-03-08T05:03:37;4.10;96.80
5346;DHT22;2695;49.444;11.054;2023-03-08T05:06:05;4.10;96.90
5346;DHT22;2695;49.444;11.054;2023-03-08T05:08:35;4.10;96.80
5346;DHT22;2695;49.444;11.054;2023-03-08T05:11:04;4.10;96.90
5346;DHT22;2695;49.444;11.054;2023-03-08T05:13:34;4.10;96.90
5346;DHT22;2695;49.444;11.054;2023-03-08T05:16:04;4.10;97.10
5346;DHT22;2695;49.444;11.054;2023-03-08T05:18:33;4.10;97.10
5346;DHT22;2695;49.444;11.054;2023-03-08T05:21:02;4.10;97.10
5346;DHT22;2695;49.444;11.054;2023-03-08T05:23:33;4.20;96.90
5346;DHT22;2695;49.444;11.054;2023-03-08T05:26:03;4.20;96.90
5346;DHT22;2695;49.444;11.054;2023-03-08T05:28:33;4.20;97.00
5346;DHT22;2695;49.444;11.054;2023-03-08T05:31:04;4.10;97.00
5346;DHT22;2695;49.444;11.054;2023-03-08T05:33:33;4.10;97.00
5346;DHT22;2695;49.444;11.054;2023-03-08T05:36:03;4.10;97.00
5346;DHT22;2695;49.444;11.054;2023-03-08T05:38:31;4.10;96.80
5346;DHT22;2695;49.444;11.054;2023-03-08T05:41:00;4.10;96.90
5346;DHT22;2695;49.444;11.054;2023-03-08T05:43:30;4.10;97.00
5346;DHT22;2695;49.444;11.054;2023-03-08T05:46:00;4.10;97.00
5346;DHT22;2695;49.444;11.054;2023-03-08T05:48:29;4.10;97.00
5346;DHT22;2695;49.444;11.054;2023-03-08T05:50:58;4.20;97.00
5346;DHT22;2695;49.444;11.054;2023-03-08T05:53:26;4.20;96.90
5346;DHT22;2695;49.444;11.054;2023-03-08T05:55:54;4.20;97.10
5346;DHT22;2695;49.444;11.054;2023-03-08T05:58:22;4.50;97.10
5346;DHT22;2695;49.444;11.054;2023-03-08T06:00:51;4.10;97.00
5346;DHT22;2695;49.444;11.054;2023-03-08T06:03:20;4.20;97.10
5346;DHT22;2695;49.444;11.054;2023-03-08T06:05:49;4.20;97.00
5346;DHT22;2695;49.444;11.054;2023-03-08T06:08:17;4.20;97.20
5346;DHT22;2695;49.444;11.054;2023-03-08T06:10:45;4.30;97.00
5346;DHT22;2695;49.444;11.054;2023-03-08T06:13:13;4.20;97.00
5346;DHT22;2695;49.444;11.054;2023-03-08T06:15:41;4.20;97.00
5346;DHT22;2695;49.444;11.054;2023-03-08T06:18:10;4.30;97.00
5346;DHT22;2695;49.444;11.054;2023-03-08T06:20:38;4.30;97.10
5346;DHT22;2695;49.444;11.054;2023-03-08T06:23:06;4.30;97.00
5346;DHT22;2695;49.444;11.054;2023-03-08T06:25:35;4.30;97.00
5346;DHT22;2695;49.444;11.054;2023-03-08T06:28:03;4.30;97.00
5346;DHT22;2695;49.444;11.054;2023-03-08T06:30:34;4.40;97.00
5346;DHT22;2695;49.444;11.054;2023-03-08T06:33:06;4.40;96.90
5346;DHT22;2695;49.444;11.054;2023-03-08T06:35:36;4.40;96.90
5346;DHT22;2695;49.444;11.054;2023-03-08T06:38:07;4.40;96.90
5346;DHT22;2695;49.444;11.054;2023-03-08T06:40:35;4.30;97.10
5346;DHT22;2695;49.444;11.054;2023-03-08T06:43:03;4.30;97.10
5346;DHT22;2695;49.444;11.054;2023-03-08T06:45:31;4.30;97.30
5346;DHT22;2695;49.444;11.054;2023-03-08T06:48:00;4.40;97.30
5346;DHT22;2695;49.444;11.054;2023-03-08T06:50:28;4.40;97.20
5346;DHT22;2695;49.444;11.054;2023-03-08T06:52:58;4.40;97.20
5346;DHT22;2695;49.444;11.054;2023-03-08T06:55:26;4.40;97.40
5346;DHT22;2695;49.444;11.054;2023-03-08T06:57:56;4.30;96.90
5346;DHT22;2695;49.444;11.054;2023-03-08T07:00:25;4.20;96.90
5346;DHT22;2695;49.444;11.054;2023-03-08T07:02:53;4.30;97.10
5346;DHT22;2695;49.444;11.054;2023-03-08T07:05:22;4.20;97.00
5346;DHT22;2695;49.444;11.054;2023-03-08T07:07:51;4.30;97.00
5346;DHT22;2695;49.444;11.054;2023-03-08T07:10:21;4.30;96.80
5346;DHT22;2695;49.444;11.054;2023-03-08T07:12:50;4.30;96.70
5346;DHT22;2695;49.444;11.054;2023-03-08T07:15:20;4.40;96.80
5346;DHT22;2695;49.444;11.054;2023-03-08T07:17:51;4.40;96.70
5346;DHT22;2695;49.444;11.054;2023-03-08T07:20:24;4.40;96.60
5346;DHT22;2695;49.444;11.054;2023-03-08T07:22:53;4.40;96.50
5346;DHT22;2695;49.444;11.054;2023-03-08T07:25:22;4.50;96.60
5346;DHT22;2695;49.444;11.054;2023-03-08T07:27:50;4.40;96.60
5346;DHT22;2695;49.444;11.054;2023-03-08T07:30:18;4.40;96.50
5346;DHT22;2695;49.444;11.054;2023-03-08T07:32:47;4.40;96.70
5346;DHT22;2695;49.444;11.054;2023-03-08T07:35:16;4.40;96.90
5346;DHT22;2695;49.444;11.054;2023-03-08T07:37:47;4.50;97.20
5346;DHT22;2695;49.444;11.054;2023-03-08T07:40:16;4.60;97.00
5346;DHT22;2695;49.444;11.054;2023-03-08T07:42:46;4.70;96.60
5346;DHT22;2695;49.444;11.054;2023-03-08T07:45:14;4.70;96.60
5346;DHT22;2695;49.444;11.054;2023-03-08T07:47:43;4.80;96.60
5346;DHT22;2695;49.444;11.054;2023-03-08T07:50:12;4.80;96.50
5346;DHT22;2695;49.444;11.054;2023-03-08T07:52:40;4.90;96.40
5346;DHT22;2695;49.444;11.054;2023-03-08T07:55:09;5.00;96.30
5346;DHT22;2695;49.444;11.054;2023-03-08T07:57:37;5.10;96.00
5346;DHT22;2695;49.444;11.054;2023-03-08T08:00:08;5.00;95.90
5346;DHT22;2695;49.444;11.054;2023-03-08T08:02:36;5.00;96.30
5346;DHT22;2695;49.444;11.054;2023-03-08T08:05:04;4.90;98.60
5346;DHT22;2695;49.444;11.054;2023-03-08T08:07:33;4.80;99.60
5346;DHT22;2695;49.444;11.054;2023-03-08T08:10:01;4.80;98.90
5346;DHT22;2695;49.444;11.054;2023-03-08T08:12:28;4.90;98.10
5346;DHT22;2695;49.444;11.054;2023-03-08T08:14:57;4.90;97.70
5346;DHT22;2695;49.444;11.054;2023-03-08T08:17:26;5.00;97.50
5346;DHT22;2695;49.444;11.054;2023-03-08T08:19:55;5.00;98.30
5346;DHT22;2695;49.444;11.054;2023-03-08T08:22:23;4.90;99.50
5346;DHT22;2695;49.444;11.054;2023-03-08T08:24:51;4.90;99.90
5346;DHT22;2695;49.444;11.054;2023-03-08T08:27:19;5.00;99.90
5346;DHT22;2695;49.444;11.054;2023-03-08T08:29:47;4.90;99.90
5346;DHT22;2695;49.444;11.054;2023-03-08T08:32:16;4.90;99.90
5346;DHT22;2695;49.444;11.054;2023-03-08T08:34:46;4.90;99.90
5346;DHT22;2695;49.444;11.054;2023-03-08T08:37:14;5.00;99.90
5346;DHT22;2695;49.444;11.054;2023-03-08T08:39:42;5.10;99.90
5346;DHT22;2695;49.444;11.054;2023-03-08T08:42:10;5.10;99.90
5346;DHT22;2695;49.444;11.054;2023-03-08T08:44:38;5.10;99.90
5346;DHT22;2695;49.444;11.054;2023-03-08T08:47:06;5.20;99.90
5346;DHT22;2695;49.444;11.054;2023-03-08T08:49:34;5.20;99.90
5346;DHT22;2695;49.444;11.054;2023-03-08T08:52:04;5.10;99.90
5346;DHT22;2695;49.444;11.054;2023-03-08T08:54:32;5.20;99.90
5346;DHT22;2695;49.444;11.054;2023-03-08T08:57:00;5.20;99.90
5346;DHT22;2695;49.444;11.054;2023-03-08T08:59:28;5.20;99.90
5346;DHT22;2695;49.444;11.054;2023-03-08T09:01:56;5.30;99.90
5346;DHT22;2695;49.444;11.054;2023-03-08T09:04:24;5.40;99.90
5346;DHT22;2695;49.444;11.054;2023-03-08T09:06:53;5.30;99.90
5346;DHT22;2695;49.444;11.054;2023-03-08T09:09:22;5.20;99.90
5346;DHT22;2695;49.444;11.054;2023-03-08T09:11:52;5.10;99.90
5346;DHT22;2695;49.444;11.054;2023-03-08T09:14:22;4.90;99.90
5346;DHT22;2695;49.444;11.054;2023-03-08T09:16:51;4.90;99.90
5346;DHT22;2695;49.444;11.054;2023-03-08T09:19:19;4.80;99.90
5346;DHT22;2695;49.444;11.054;2023-03-08T09:21:47;4.70;99.90
5346;DHT22;2695;49.444;11.054;2023-03-08T09:24:15;4.70;99.90
5346;DHT22;2695;49.444;11.054;2023-03-08T09:26:45;4.50;99.90
5346;DHT22;2695;49.444;11.054;2023-03-08T09:29:13;4.30;99.90
5346;DHT22;2695;49.444;11.054;2023-03-08T09:31:41;4.20;99.90
5346;DHT22;2695;49.444;11.054;2023-03-08T09:34:12;4.20;99.90
5346;DHT22;2695;49.444;11.054;2023-03-08T09:36:41;4.10;99.90
5346;DHT22;2695;49.444;11.054;2023-03-08T09:39:11;4.10;99.90
5346;DHT22;2695;49.444;11.054;2023-03-08T09:41:47;4.00;99.90
5346;DHT22;2695;49.444;11.054;2023-03-08T09:44:43;3.80;99.90
5346;DHT22;2695;49.444;11.054;2023-03-08T09:47:27;3.70;99.90
5346;DHT22;2695;49.444;11.054;2023-03-08T09:50:03;3.60;99.90
5346;DHT22;2695;49.444;11.054;2023-03-08T09:55:18;3.40;99.90
5346;DHT22;2695;49.444;11.054;2023-03-08T09:57:53;3.40;99.90
5346;DHT22;2695;49.444;11.054;2023-03-08T10:00:27;3.40;99.90
5346;DHT22;2695;49.444;11.054;2023-03-08T10:03:27;3.30;99.90
5346;DHT22;2695;49.444;11.054;2023-03-08T10:06:03;3.30;99.90
5346;DHT22;2695;49.444;11.054;2023-03-08T10:08:38;3.20;99.90
5346;DHT22;2695;49.444;11.054;2023-03-08T10:11:17;3.20;99.90
5346;DHT22;2695;49.444;11.054;2023-03-08T10:13:49;3.20;99.90
5346;DHT22;2695;49.444;11.054;2023-03-08T10:16:21;3.20;99.90
5346;DHT22;2695;49.444;11.054;2023-03-08T10:18:51;3.10;99.90
5346;DHT22;2695;49.444;11.054;2023-03-08T10:21:22;3.20;99.90
5346;DHT22;2695;49.444;11.054;2023-03-08T10:23:57;3.10;99.90
5346;DHT22;2695;49.444;11.054;2023-03-08T10:26:26;3.00;99.90
5346;DHT22;2695;49.444;11.054;2023-03-08T10:28:55;3.10;99.90
5346;DHT22;2695;49.444;11.054;2023-03-08T10:31:25;3.00;99.90
5346;DHT22;2695;49.444;11.054;2023-03-08T10:34:01;3.00;99.90
5346;DHT22;2695;49.444;11.054;2023-03-08T10:36:30;3.00;99.90
5346;DHT22;2695;49.444;11.054;2023-03-08T10:39:04;3.10;99.90
5346;DHT22;2695;49.444;11.054;2023-03-08T10:41:39;3.20;99.90
5346;DHT22;2695;49.444;11.054;2023-03-08T10:44:13;3.30;99.90
5346;DHT22;2695;49.444;11.054;2023-03-08T10:46:46;3.30;99.90
5346;DHT22;2695;49.444;11.054;2023-03-08T10:49:17;3.30;99.90
5346;DHT22;2695;49.444;11.054;2023-03-08T10:51:53;3.20;99.90
5346;DHT22;2695;49.444;11.054;2023-03-08T10:54:22;3.20;99.90
5346;DHT22;2695;49.444;11.054;2023-03-08T10:56:52;3.20;99.90
5346;DHT22;2695;49.444;11.054;2023-03-08T10:59:25;3.20;99.90
5346;DHT22;2695;49.444;11.054;2023-03-08T11:01:59;3.40;99.90
5346;DHT22;2695;49.444;11.054;2023-03-08T11:04:29;3.40;99.90
5346;DHT22;2695;49.444;11.054;2023-03-08T11:06:57;3.40;99.90
5346;DHT22;2695;49.444;11.054;2023-03-08T11:09:27;3.40;99.90
5346;DHT22;2695;49.444;11.054;2023-03-08T11:11:56;3.40;99.90
5346;DHT22;2695;49.444;11.054;2023-03-08T11:14:27;3.40;99.90
5346;DHT22;2695;49.444;11.054;2023-03-08T11:17:12;3.40;99.90
5346;DHT22;2695;49.444;11.054;2023-03-08T11:19:49;3.40;99.90
5346;DHT22;2695;49.444;11.054;2023-03-08T11:25:36;3.40;99.90
5346;DHT22;2695;49.444;11.054;2023-03-08T11:28:41;3.60;99.90
5346;DHT22;2695;49.444;11.054;2023-03-08T11:31:20;3.60;99.90
5346;DHT22;2695;49.444;11.054;2023-03-08T11:34:01;3.60;99.90
5346;DHT22;2695;49.444;11.054;2023-03-08T11:36:38;3.70;99.90
5346;DHT22;2695;49.444;11.054;2023-03-08T11:39:12;3.80;99.90
5346;DHT22;2695;49.444;11.054;2023-03-08T11:41:50;3.80;99.90
5346;DHT22;2695;49.444;11.054;2023-03-08T11:44:32;3.90;99.90
5346;DHT22;2695;49.444;11.054;2023-03-08T11:50:10;4.00;99.90
5346;DHT22;2695;49.444;11.054;2023-03-08T11:52:49;4.10;99.90
5346;DHT22;2695;49.444;11.054;2023-03-08T11:55:32;4.00;99.90
5346;DHT22;2695;49.444;11.054;2023-03-08T11:58:07;4.00;99.90
5346;DHT22;2695;49.444;11.054;2023-03-08T12:00:38;3.90;99.90
5346;DHT22;2695;49.444;11.054;2023-03-08T12:03:12;3.90;99.90
5346;DHT22;2695;49.444;11.054;2023-03-08T12:05:44;3.90;99.90
5346;DHT22;2695;49.444;11.054;2023-03-08T12:08:19;3.90;99.90
5346;DHT22;2695;49.444;11.054;2023-03-08T12:10:52;3.90;99.90
5346;DHT22;2695;49.444;11.054;2023-03-08T12:13:26;3.90;99.90
5346;DHT22;2695;49.444;11.054;2023-03-08T12:16:01;4.00;99.90
5346;DHT22;2695;49.444;11.054;2023-03-08T12:18:39;4.00;99.90
5346;DHT22;2695;49.444;11.054;2023-03-08T12:21:14;4.10;99.90
5346;DHT22;2695;49.444;11.054;2023-03-08T12:23:50;4.10;99.90
5346;DHT22;2695;49.444;11.054;2023-03-08T12:26:24;4.10;99.90
5346;DHT22;2695;49.444;11.054;2023-03-08T12:28:55;4.20;99.90
5346;DHT22;2695;49.444;11.054;2023-03-08T12:31:26;4.30;99.90
5346;DHT22;2695;49.444;11.054;2023-03-08T12:33:58;4.40;99.90
5346;DHT22;2695;49.444;11.054;2023-03-08T12:36:36;4.50;99.90
5346;DHT22;2695;49.444;11.054;2023-03-08T12:39:06;4.50;99.90
5346;DHT22;2695;49.444;11.054;2023-03-08T12:41:35;4.50;99.90
5346;DHT22;2695;49.444;11.054;2023-03-08T12:44:04;4.50;99.90
5346;DHT22;2695;49.444;11.054;2023-03-08T12:46:48;4.40;99.90
5346;DHT22;2695;49.444;11.054;2023-03-08T12:49:32;4.40;99.90
5346;DHT22;2695;49.444;11.054;2023-03-08T12:52:03;4.60;99.90
5346;DHT22;2695;49.444;11.054;2023-03-08T12:54:33;4.70;99.90
5346;DHT22;2695;49.444;11.054;2023-03-08T12:57:14;4.70;99.90
5346;DHT22;2695;49.444;11.054;2023-03-08T12:59:43;4.60;99.90
5346;DHT22;2695;49.444;11.054;2023-03-08T13:02:25;4.60;99.90
5346;DHT22;2695;49.444;11.054;2023-03-08T13:05:18;4.50;99.90
5346;DHT22;2695;49.444;11.054;2023-03-08T13:08:02;4.50;99.90
5346;DHT22;2695;49.444;11.054;2023-03-08T13:10:33;4.60;99.90
5346;DHT22;2695;49.444;11.054;2023-03-08T13:13:19;4.60;99.90
5346;DHT22;2695;49.444;11.054;2023-03-08T13:16:19;4.60;99.90
5346;DHT22;2695;49.444;11.054;2023-03-08T13:18:49;4.70;99.90
5346;DHT22;2695;49.444;11.054;2023-03-08T13:21:31;4.80;99.90
5346;DHT22;2695;49.444;11.054;2023-03-08T13:24:05;5.00;99.90
5346;DHT22;2695;49.444;11.054;2023-03-08T13:26:52;5.10;99.90
5346;DHT22;2695;49.444;11.054;2023-03-08T13:29:28;5.10;99.90
5346;DHT22;2695;49.444;11.054;2023-03-08T13:31:57;5.30;99.90
5346;DHT22;2695;49.444;11.054;2023-03-08T13:34:32;5.30;99.90
5346;DHT22;2695;49.444;11.054;2023-03-08T13:37:03;5.30;99.90
5346;DHT22;2695;49.444;11.054;2023-03-08T13:39:31;5.40;99.90
5346;DHT22;2695;49.444;11.054;2023-03-08T13:42:07;5.40;99.90
5346;DHT22;2695;49.444;11.054;2023-03-08T13:44:36;5.50;99.90
5346;DHT22;2695;49.444;11.054;2023-03-08T13:47:20;5.60;99.90
5346;DHT22;2695;49.444;11.054;2023-03-08T13:49:49;5.70;99.90
5346;DHT22;2695;49.444;11.054;2023-03-08T13:52:21;5.80;99.90
5346;DHT22;2695;49.444;11.054;2023-03-08T13:54:52;5.80;99.90
5346;DHT22;2695;49.444;11.054;2023-03-08T13:57:23;5.90;99.90
5346;DHT22;2695;49.444;11.054;2023-03-08T13:59:54;5.90;99.90
5346;DHT22;2695;49.444;11.054;2023-03-08T14:02:23;6.00;99.90
5346;DHT22;2695;49.444;11.054;2023-03-08T14:04:52;6.10;99.90
5346;DHT22;2695;49.444;11.054;2023-03-08T14:07:24;6.10;99.90
5346;DHT22;2695;49.444;11.054;2023-03-08T14:09:52;6.20;99.90
5346;DHT22;2695;49.444;11.054;2023-03-08T14:12:22;6.40;99.90
5346;DHT22;2695;49.444;11.054;2023-03-08T14:14:53;6.40;99.90
5346;DHT22;2695;49.444;11.054;2023-03-08T14:17:24;6.50;99.90
5346;DHT22;2695;49.444;11.054;2023-03-08T14:19:54;6.60;99.90
5346;DHT22;2695;49.444;11.054;2023-03-08T14:22:26;6.60;99.90
5346;DHT22;2695;49.444;11.054;2023-03-08T14:25:19;6.60;99.90
5346;DHT22;2695;49.444;11.054;2023-03-08T14:27:48;6.70;99.90
5346;DHT22;2695;49.444;11.054;2023-03-08T14:30:18;6.70;99.90
5346;DHT22;2695;49.444;11.054;2023-03-08T14:32:59;6.80;99.90
5346;DHT22;2695;49.444;11.054;2023-03-08T14:35:29;6.80;99.90
5346;DHT22;2695;49.444;11.054;2023-03-08T14:37:59;6.90;99.90
5346;DHT22;2695;49.444;11.054;2023-03-08T14:40:30;6.90;99.90
5346;DHT22;2695;49.444;11.054;2023-03-08T14:42:59;7.00;99.90
5346;DHT22;2695;49.444;11.054;2023-03-08T14:45:32;7.00;99.90
5346;DHT22;2695;49.444;11.054;2023-03-08T14:48:18;7.00;99.90
5346;DHT22;2695;49.444;11.054;2023-03-08T14:50:55;7.00;99.90
5346;DHT22;2695;49.444;11.054;2023-03-08T14:53:27;7.10;99.90
5346;DHT22;2695;49.444;11.054;2023-03-08T14:55:56;7.20;99.90
5346;DHT22;2695;49.444;11.054;2023-03-08T14:58:27;7.20;99.90
5346;DHT22;2695;49.444;11.054;2023-03-08T15:00:58;7.30;99.90
5346;DHT22;2695;49.444;11.054;2023-03-08T15:03:27;7.30;99.90
5346;DHT22;2695;49.444;11.054;2023-03-08T15:05:56;7.40;99.90
5346;DHT22;2695;49.444;11.054;2023-03-08T15:08:25;7.50;99.90
5346;DHT22;2695;49.444;11.054;2023-03-08T15:10:53;7.60;99.90
5346;DHT22;2695;49.444;11.054;2023-03-08T15:13:22;7.60;99.90
5346;DHT22;2695;49.444;11.054;2023-03-08T15:15:50;7.70;99.90
5346;DHT22;2695;49.444;11.054;2023-03-08T15:18:18;7.80;99.90
5346;DHT22;2695;49.444;11.054;2023-03-08T15:20:48;7.90;99.90
5346;DHT22;2695;49.444;11.054;2023-03-08T15:23:19;8.00;99.90
5346;DHT22;2695;49.444;11.054;2023-03-08T15:25:49;8.00;99.90
5346;DHT22;2695;49.444;11.054;2023-03-08T15:28:19;8.00;99.90
5346;DHT22;2695;49.444;11.054;2023-03-08T15:30:48;8.00;99.90
5346;DHT22;2695;49.444;11.054;2023-03-08T15:33:18;7.90;99.90
5346;DHT22;2695;49.444;11.054;2023-03-08T15:35:47;7.90;99.90
5346;DHT22;2695;49.444;11.054;2023-03-08T15:38:17;7.90;99.90
5346;DHT22;2695;49.444;11.054;2023-03-08T15:40:47;7.80;99.90
5346;DHT22;2695;49.444;11.054;2023-03-08T15:43:16;7.80;99.90
5346;DHT22;2695;49.444;11.054;2023-03-08T15:45:44;7.80;99.90
5346;DHT22;2695;49.444;11.054;2023-03-08T15:48:14;7.80;99.90
5346;DHT22;2695;49.444;11.054;2023-03-08T15:50:43;7.70;99.90
5346;DHT22;2695;49.444;11.054;2023-03-08T15:53:11;7.70;99.90
5346;DHT22;2695;49.444;11.054;2023-03-08T15:55:51;7.80;99.90
5346;DHT22;2695;49.444;11.054;2023-03-08T15:58:21;7.80;99.90
5346;DHT22;2695;49.444;11.054;2023-03-08T16:00:50;7.90;99.90
5346;DHT22;2695;49.444;11.054;2023-03-08T16:03:18;8.00;99.90
5346;DHT22;2695;49.444;11.054;2023-03-08T16:05:51;8.20;99.90
5346;DHT22;2695;49.444;11.054;2023-03-08T16:08:19;8.20;99.90
5346;DHT22;2695;49.444;11.054;2023-03-08T16:10:51;8.20;99.90
5346;DHT22;2695;49.444;11.054;2023-03-08T16:13:20;8.20;99.90
5346;DHT22;2695;49.444;11.054;2023-03-08T16:15:48;8.20;99.90
5346;DHT22;2695;49.444;11.054;2023-03-08T16:18:16;8.10;99.90
5346;DHT22;2695;49.444;11.054;2023-03-08T16:20:44;8.10;99.90
5346;DHT22;2695;49.444;11.054;2023-03-08T16:23:12;8.10;99.90
5346;DHT22;2695;49.444;11.054;2023-03-08T16:25:40;8.00;99.90
5346;DHT22;2695;49.444;11.054;2023-03-08T16:28:09;8.10;99.90
5346;DHT22;2695;49.444;11.054;2023-03-08T16:30:40;8.10;99.90
5346;DHT22;2695;49.444;11.054;2023-03-08T16:33:08;8.10;99.90
5346;DHT22;2695;49.444;11.054;2023-03-08T16:35:37;8.10;99.90